Saint Mary Of The Woods, Indiana
Current Conditions -  °F | °C
As of 1:53 PM on Friday 24 Oct 2014 (Local Time) from KHUF Reporting Station
Clear Clear  
Wind Chill: 65°   Ceiling: Unl
Heat Index: 65°   Visibility: 8mi
Dew Point: 51°   Wind: 3mph
Humidity: 61%   Direction: 200°SSW
Pressure: 30.07"   Gusts: NA
Location:  39.51°N, 87.46°W
Report Text: KHUF 241753Z 20003KT 8SM CLR 18/11 A3007 RMK AO2 SLP183 T01830106 10183 20089 58017
Loading
Personal Weather Stations






























Interactive Weather Map
Tropical Storm Tracking
New forecast layout! Learn more

10-Day Weather Forecast

Advertisements
Track Severe Weather on mobile